Time,TemperatureF,DewpointF,PressureIn,WindDirection,WindDirectionDegrees,WindSpeedMPH,WindSpeedGustMPH,Humidity,HourlyPrecipIn,Conditions,Clouds,dailyrainin,SoftwareType,DateUTC
2013-10-19 00:01:00,44.9,43.8,30.13,South,173,0.0,0.0,96,0.00,,CLR,0.01,VWS V14.01,2013-10-19 07:01:00,
2013-10-19 00:06:00,44.8,43.5,30.13,South,173,0.0,0.0,95,0.00,,CLR,0.00,VWS V14.01,2013-10-19 07:06:00,
2013-10-19 00:11:00,44.8,43.5,30.13,South,173,0.0,0.0,95,0.00,,CLR,0.00,VWS V14.01,2013-10-19 07:11:00,
2013-10-19 00:16:00,44.6,43.3,30.13,South,172,0.0,0.0,95,0.00,,CLR,0.00,VWS V14.01,2013-10-19 07:16:00,
2013-10-19 00:21:00,44.3,43.0,30.13,South,173,0.0,0.0,95,0.00,,CLR,0.00,VWS V14.01,2013-10-19 07:21:00,
2013-10-19 00:26:00,44.2,42.9,30.13,South,173,0.0,0.0,95,0.00,,CLR,0.00,VWS V14.01,2013-10-19 07:26:00,
2013-10-19 00:31:00,44.3,43.2,30.13,South,172,0.0,0.0,96,0.00,,CLR,0.00,VWS V14.01,2013-10-19 07:31:00,
2013-10-19 00:36:00,44.0,42.9,30.13,South,172,0.0,0.0,96,0.00,,CLR,0.00,VWS V14.01,2013-10-19 07:36:00,
2013-10-19 00:41:00,43.7,42.6,30.13,South,172,0.0,0.0,96,0.00,,CLR,0.00,VWS V14.01,2013-10-19 07:41:00,
2013-10-19 00:46:00,43.4,42.1,30.13,South,172,0.0,0.0,95,0.00,,CLR,0.00,VWS V14.01,2013-10-19 07:46:00,
2013-10-19 00:51:00,43.5,42.4,30.13,South,172,0.0,0.0,96,0.00,,CLR,0.00,VWS V14.01,2013-10-19 07:51:00,
2013-10-19 00:56:00,43.9,42.8,30.13,South,172,0.0,0.0,96,0.00,,CLR,0.00,VWS V14.01,2013-10-19 07:56:00,
2013-10-19 01:01:00,43.8,42.7,30.13,South,173,0.0,0.0,96,0.00,,CLR,0.00,VWS V14.01,2013-10-19 08:01:00,
2013-10-19 01:06:00,43.6,42.5,30.13,South,173,0.0,0.0,96,0.00,,CLR,0.00,VWS V14.01,2013-10-19 08:06:00,
2013-10-19 01:11:00,43.7,42.6,30.13,South,172,0.0,0.0,96,0.00,,CLR,0.00,VWS V14.01,2013-10-19 08:11:00,
2013-10-19 01:16:00,43.8,42.7,30.13,South,173,0.0,0.0,96,0.00,,CLR,0.00,VWS V14.01,2013-10-19 08:16:00,
2013-10-19 01:21:00,44.0,42.9,30.13,South,172,0.0,0.0,96,0.00,,CLR,0.00,VWS V14.01,2013-10-19 08:21:00,
2013-10-19 01:26:00,43.8,42.7,30.13,South,172,0.0,0.0,96,0.00,,CLR,0.00,VWS V14.01,2013-10-19 08:26:00,
2013-10-19 01:31:00,43.5,42.4,30.13,South,172,0.0,0.0,96,0.00,,CLR,0.00,VWS V14.01,2013-10-19 08:31:00,
2013-10-19 01:36:00,43.2,42.1,30.13,South,172,0.0,0.0,96,0.00,,CLR,0.00,VWS V14.01,2013-10-19 08:36:00,
2013-10-19 01:41:00,43.1,42.0,30.13,South,172,0.0,0.0,96,0.00,,CLR,0.00,VWS V14.01,2013-10-19 08:41:00,
2013-10-19 01:46:00,42.8,41.7,30.14,South,172,0.0,0.0,96,0.00,,CLR,0.00,VWS V14.01,2013-10-19 08:46:00,
2013-10-19 01:51:00,42.9,41.8,30.14,South,172,0.0,0.0,96,0.00,,CLR,0.00,VWS V14.01,2013-10-19 08:51:00,
2013-10-19 01:56:00,43.2,42.1,30.14,South,172,0.0,0.0,96,0.00,,CLR,0.00,VWS V14.01,2013-10-19 08:56:00,
2013-10-19 02:01:00,43.2,42.1,30.14,South,172,0.0,0.0,96,0.00,,CLR,0.00,VWS V14.01,2013-10-19 09:01:00,
2013-10-19 02:06:00,42.8,41.7,30.14,South,173,0.0,0.0,96,0.00,,FEW005,0.00,VWS V14.01,2013-10-19 09:06:00,
2013-10-19 02:11:00,42.9,41.8,30.14,South,173,0.0,0.0,96,0.00,,FEW005,0.00,VWS V14.01,2013-10-19 09:11:00,
2013-10-19 02:16:00,42.6,41.5,30.14,South,172,0.0,0.0,96,0.00,,FEW005,0.00,VWS V14.01,2013-10-19 09:16:00,
2013-10-19 02:21:00,42.6,41.5,30.14,South,172,0.0,0.0,96,0.00,,FEW005,0.00,VWS V14.01,2013-10-19 09:21:00,
2013-10-19 02:26:00,42.5,41.4,30.14,South,172,0.0,0.0,96,0.00,,BKN004,0.00,VWS V14.01,2013-10-19 09:26:00,
2013-10-19 02:31:00,42.8,41.7,30.14,South,172,0.0,0.0,96,0.00,,BKN004,0.00,VWS V14.01,2013-10-19 09:31:00,
2013-10-19 02:36:00,42.5,41.4,30.14,South,173,0.0,0.0,96,0.00,,BKN004,0.00,VWS V14.01,2013-10-19 09:36:00,
2013-10-19 02:41:00,42.6,41.5,30.14,South,172,0.0,0.0,96,0.00,,BKN004,0.00,VWS V14.01,2013-10-19 09:41:00,
2013-10-19 02:46:00,42.6,41.5,30.14,South,172,0.0,0.0,96,0.00,,OVC003,0.00,VWS V14.01,2013-10-19 09:46:00,
2013-10-19 02:51:00,42.4,41.3,30.14,South,172,0.0,0.0,96,0.00,,OVC003,0.00,VWS V14.01,2013-10-19 09:51:00,
2013-10-19 02:56:00,41.9,40.8,30.14,South,172,0.0,0.0,96,0.00,,OVC003,0.00,VWS V14.01,2013-10-19 09:56:00,
2013-10-19 03:01:00,42.1,41.0,30.15,South,172,0.0,0.0,96,0.00,,OVC003,0.00,VWS V14.01,2013-10-19 10:01:00,
2013-10-19 03:06:00,41.6,40.5,30.14,South,172,0.0,0.0,96,0.00,,OVC003,0.00,VWS V14.01,2013-10-19 10:06:00,
2013-10-19 03:11:00,41.6,40.5,30.14,South,172,0.0,0.0,96,0.00,,OVC003,0.00,VWS V14.01,2013-10-19 10:11:00,
2013-10-19 03:16:00,41.5,40.5,30.14,South,172,0.0,0.0,96,0.00,,OVC003,0.00,VWS V14.01,2013-10-19 10:16:00,
2013-10-19 03:21:00,41.3,40.2,30.14,South,172,0.0,0.0,96,0.00,,OVC003,0.00,VWS V14.01,2013-10-19 10:21:00,
2013-10-19 03:26:00,41.8,41.0,30.14,South,172,0.0,0.0,97,0.00,,OVC004,0.00,VWS V14.01,2013-10-19 10:26:00,
2013-10-19 03:31:00,41.6,40.5,30.14,South,172,0.0,0.0,96,0.00,,OVC004,0.00,VWS V14.01,2013-10-19 10:31:00,
2013-10-19 03:36:00,41.5,40.5,30.14,South,172,0.0,0.0,96,0.00,,OVC004,0.00,VWS V14.01,2013-10-19 10:36:00,
2013-10-19 03:41:00,41.3,40.2,30.14,South,172,0.0,0.0,96,0.00,,OVC004,0.00,VWS V14.01,2013-10-19 10:41:00,
2013-10-19 03:46:00,41.2,40.2,30.14,South,172,0.0,0.0,96,0.00,,OVC003,0.00,VWS V14.01,2013-10-19 10:46:00,
2013-10-19 03:51:00,41.3,40.5,30.13,South,172,0.0,0.0,97,0.00,,OVC003,0.00,VWS V14.01,2013-10-19 10:51:00,
2013-10-19 03:56:00,41.1,40.3,30.13,South,172,0.0,0.0,97,0.00,,OVC003,0.00,VWS V14.01,2013-10-19 10:56:00,
2013-10-19 04:01:00,41.1,40.3,30.13,South,173,0.0,0.0,97,0.00,,OVC003,0.00,VWS V14.01,2013-10-19 11:01:00,
2013-10-19 04:06:00,40.9,40.1,30.14,South,172,0.0,0.0,97,0.00,,OVC003,0.00,VWS V14.01,2013-10-19 11:06:00,
2013-10-19 04:11:00,40.8,40.0,30.14,South,172,0.0,0.0,97,0.00,,OVC003,0.00,VWS V14.01,2013-10-19 11:11:00,
2013-10-19 04:16:00,40.9,40.1,30.14,South,172,0.0,0.0,97,0.00,,OVC003,0.00,VWS V14.01,2013-10-19 11:16:00,
2013-10-19 04:21:00,41.3,40.5,30.14,South,172,0.0,0.0,97,0.00,,OVC003,0.00,VWS V14.01,2013-10-19 11:21:00,
2013-10-19 04:26:00,41.1,40.3,30.14,South,172,0.0,0.0,97,0.00,,OVC003,0.00,VWS V14.01,2013-10-19 11:26:00,
2013-10-19 04:31:00,40.8,40.0,30.14,South,173,0.0,0.0,97,0.00,,OVC003,0.00,VWS V14.01,2013-10-19 11:31:00,
2013-10-19 04:36:00,40.7,39.9,30.14,South,172,0.0,0.0,97,0.00,,OVC003,0.00,VWS V14.01,2013-10-19 11:36:00,
2013-10-19 04:41:00,41.1,40.3,30.14,South,172,0.0,0.0,97,0.00,,OVC003,0.00,VWS V14.01,2013-10-19 11:41:00,
2013-10-19 04:46:00,41.4,40.6,30.14,South,172,0.0,0.0,97,0.00,,OVC003,0.00,VWS V14.01,2013-10-19 11:46:00,
2013-10-19 04:51:00,41.4,40.6,30.14,South,172,0.0,0.0,97,0.00,,OVC003,0.00,VWS V14.01,2013-10-19 11:51:00,
2013-10-19 04:56:00,42.3,41.5,30.14,South,172,0.0,0.0,97,0.00,,OVC003,0.00,VWS V14.01,2013-10-19 11:56:00,
2013-10-19 05:01:00,42.6,41.8,30.14,South,172,0.0,0.0,97,0.00,,OVC003,0.00,VWS V14.01,2013-10-19 12:01:00,
2013-10-19 05:06:00,42.9,42.4,30.14,South,172,0.0,0.0,98,0.00,,OVC003,0.00,VWS V14.01,2013-10-19 12:06:00,
2013-10-19 05:11:00,43.4,42.9,30.14,South,172,0.0,0.0,98,0.00,,OVC003,0.00,VWS V14.01,2013-10-19 12:11:00,
2013-10-19 05:16:00,43.4,42.9,30.14,South,172,0.0,0.0,98,0.00,,OVC003,0.00,VWS V14.01,2013-10-19 12:16:00,
2013-10-19 05:21:00,43.6,43.1,30.14,South,173,0.0,0.0,98,0.00,,OVC003,0.00,VWS V14.01,2013-10-19 12:21:00,
2013-10-19 05:26:00,43.8,43.3,30.14,South,172,0.0,0.0,98,0.00,,OVC002,0.00,VWS V14.01,2013-10-19 12:26:00,
2013-10-19 05:31:00,43.7,43.2,30.14,South,173,0.0,0.0,98,0.00,,OVC002,0.00,VWS V14.01,2013-10-19 12:31:00,
2013-10-19 05:36:00,43.8,43.0,30.14,South,172,0.0,0.0,97,0.00,,OVC002,0.00,VWS V14.01,2013-10-19 12:36:00,
2013-10-19 05:41:00,43.9,43.1,30.14,South,173,0.0,0.0,97,0.00,,OVC002,0.00,VWS V14.01,2013-10-19 12:41:00,
2013-10-19 05:46:00,44.0,43.2,30.14,South,172,0.0,0.0,97,0.00,,OVC003,0.00,VWS V14.01,2013-10-19 12:46:00,
2013-10-19 05:51:00,44.1,43.3,30.14,South,173,0.0,0.0,97,0.00,,OVC003,0.00,VWS V14.01,2013-10-19 12:51:00,
2013-10-19 05:56:00,44.3,43.5,30.14,South,173,0.0,0.0,97,0.00,,OVC003,0.00,VWS V14.01,2013-10-19 12:56:00,
2013-10-19 06:01:00,44.3,43.5,30.14,South,172,0.0,0.0,97,0.00,,OVC003,0.00,VWS V14.01,2013-10-19 13:01:00,
2013-10-19 06:06:00,44.5,43.7,30.14,South,173,0.0,0.0,97,0.00,,OVC003,0.00,VWS V14.01,2013-10-19 13:06:00,
2013-10-19 06:11:00,44.7,43.9,30.14,South,173,0.0,0.0,97,0.00,,OVC003,0.00,VWS V14.01,2013-10-19 13:11:00,
2013-10-19 06:16:00,44.8,44.0,30.14,South,173,0.0,0.0,97,0.00,,OVC003,0.00,VWS V14.01,2013-10-19 13:16:00,
2013-10-19 06:21:00,44.9,44.1,30.14,South,172,0.0,0.0,97,0.00,,OVC003,0.00,VWS V14.01,2013-10-19 13:21:00,
2013-10-19 06:26:00,45.0,44.2,30.14,South,173,0.0,0.0,97,0.00,,OVC002,0.00,VWS V14.01,2013-10-19 13:26:00,
2013-10-19 06:31:00,45.2,44.4,30.14,South,172,0.0,0.0,97,0.00,,OVC002,0.00,VWS V14.01,2013-10-19 13:31:00,
2013-10-19 06:36:00,45.3,44.5,30.14,South,172,0.0,0.0,97,0.00,,OVC002,0.00,VWS V14.01,2013-10-19 13:36:00,
2013-10-19 06:41:00,45.3,44.5,30.14,South,172,0.0,0.0,97,0.00,,OVC002,0.00,VWS V14.01,2013-10-19 13:41:00,
2013-10-19 06:46:00,45.4,44.6,30.14,South,172,0.0,0.0,97,0.00,,OVC002,0.00,VWS V14.01,2013-10-19 13:46:00,
2013-10-19 06:51:00,45.6,44.8,30.14,South,173,0.0,0.0,97,0.00,,OVC002,0.00,VWS V14.01,2013-10-19 13:51:00,
2013-10-19 06:56:00,45.7,44.9,30.15,South,172,0.0,0.0,97,0.00,,OVC002,0.00,VWS V14.01,2013-10-19 13:56:00,
2013-10-19 07:01:00,45.8,45.0,30.15,South,172,0.0,0.0,97,0.00,,OVC002,0.00,VWS V14.01,2013-10-19 14:01:00,
2013-10-19 07:06:00,45.8,45.0,30.15,South,172,0.0,0.0,97,0.00,,OVC002,0.00,VWS V14.01,2013-10-19 14:06:00,
2013-10-19 07:11:00,45.9,45.1,30.14,South,172,0.0,0.0,97,0.00,,OVC002,0.00,VWS V14.01,2013-10-19 14:11:00,
2013-10-19 07:16:00,45.9,45.1,30.15,South,172,0.0,0.0,97,0.00,,OVC002,0.00,VWS V14.01,2013-10-19 14:16:00,
2013-10-19 07:21:00,45.9,45.1,30.14,South,172,0.0,0.0,97,0.00,,OVC002,0.00,VWS V14.01,2013-10-19 14:21:00,
2013-10-19 07:26:00,46.0,45.2,30.14,SSE,168,2.0,0.0,97,0.00,,OVC002,0.00,VWS V14.01,2013-10-19 14:26:00,
2013-10-19 07:31:00,46.0,45.2,30.14,SSW,203,1.0,0.0,97,0.00,,OVC002,0.00,VWS V14.01,2013-10-19 14:31:00,
2013-10-19 07:36:00,46.1,45.3,30.14,South,186,1.0,0.0,97,0.00,,OVC002,0.00,VWS V14.01,2013-10-19 14:36:00,
2013-10-19 07:41:00,46.1,45.3,30.14,SSW,204,0.0,0.0,97,0.00,,OVC002,0.00,VWS V14.01,2013-10-19 14:41:00,
2013-10-19 07:46:00,46.2,45.4,30.14,SSW,204,0.0,0.0,97,0.00,,OVC003,0.00,VWS V14.01,2013-10-19 14:46:00,
2013-10-19 07:51:00,46.2,45.4,30.15,SSW,200,0.0,0.0,97,0.00,,OVC003,0.00,VWS V14.01,2013-10-19 14:51:00,
2013-10-19 07:56:00,46.1,45.3,30.15,SSW,200,0.0,0.0,97,0.00,,OVC003,0.00,VWS V14.01,2013-10-19 14:56:00,
2013-10-19 08:01:00,45.9,45.1,30.15,NW,315,0.0,0.0,97,0.00,,OVC003,0.00,VWS V14.01,2013-10-19 15:01:00,
2013-10-19 08:06:00,46.0,45.2,30.15,NW,315,0.0,0.0,97,0.00,,OVC003,0.00,VWS V14.01,2013-10-19 15:06:00,
2013-10-19 08:11:00,46.0,45.2,30.15,NW,315,0.0,0.0,97,0.00,,OVC003,0.00,VWS V14.01,2013-10-19 15:11:00,
2013-10-19 08:16:00,46.1,45.3,30.15,NW,315,0.0,0.0,97,0.00,,OVC003,0.00,VWS V14.01,2013-10-19 15:16:00,
2013-10-19 08:21:00,46.2,45.4,30.16,WNW,291,0.0,0.0,97,0.00,,OVC003,0.00,VWS V14.01,2013-10-19 15:21:00,
2013-10-19 08:26:00,46.3,45.5,30.16,WNW,290,0.0,0.0,97,0.00,,OVC002,0.00,VWS V14.01,2013-10-19 15:26:00,
2013-10-19 08:31:00,46.3,45.5,30.16,WNW,291,0.0,0.0,97,0.00,,OVC002,0.00,VWS V14.01,2013-10-19 15:31:00,
2013-10-19 08:36:00,46.4,45.6,30.16,WNW,291,0.0,0.0,97,0.00,,OVC002,0.00,VWS V14.01,2013-10-19 15:36:00,
2013-10-19 08:41:00,46.5,45.7,30.16,ESE,111,0.0,0.0,97,0.00,,OVC002,0.00,VWS V14.01,2013-10-19 15:41:00,
2013-10-19 08:46:00,46.5,45.7,30.16,ESE,112,0.0,0.0,97,0.00,,OVC003,0.00,VWS V14.01,2013-10-19 15:46:00,
2013-10-19 08:51:00,46.5,45.7,30.16,ESE,112,0.0,0.0,97,0.00,,OVC003,0.00,VWS V14.01,2013-10-19 15:51:00,
2013-10-19 08:56:00,46.5,45.7,30.16,ESE,111,0.0,0.0,97,0.00,,OVC003,0.00,VWS V14.01,2013-10-19 15:56:00,
2013-10-19 09:01:00,46.7,45.9,30.16,ESE,112,0.0,0.0,97,0.00,,OVC003,0.00,VWS V14.01,2013-10-19 16:01:00,
2013-10-19 09:06:00,46.7,45.9,30.16,ESE,111,0.0,0.0,97,0.00,,OVC003,0.00,VWS V14.01,2013-10-19 16:06:00,
2013-10-19 09:11:00,46.8,46.0,30.16,NE,43,0.0,0.0,97,0.00,,OVC003,0.00,VWS V14.01,2013-10-19 16:11:00,
2013-10-19 09:16:00,46.8,46.0,30.16,East,100,1.0,0.0,97,0.00,,OVC003,0.00,VWS V14.01,2013-10-19 16:16:00,
2013-10-19 09:21:00,46.7,45.6,30.16,East,99,0.0,0.0,96,0.00,,OVC003,0.00,VWS V14.01,2013-10-19 16:21:00,
2013-10-19 09:26:00,46.7,45.6,30.16,ESE,103,0.0,0.0,96,0.00,,OVC003,0.00,VWS V14.01,2013-10-19 16:26:00,
2013-10-19 09:31:00,46.9,45.8,30.16,ESE,104,0.0,0.0,96,0.00,,OVC003,0.00,VWS V14.01,2013-10-19 16:31:00,
2013-10-19 09:36:00,46.9,45.8,30.16,ESE,111,0.0,0.0,96,0.00,,OVC003,0.00,VWS V14.01,2013-10-19 16:36:00,
2013-10-19 09:41:00,47.1,46.0,30.17,ESE,112,0.0,0.0,96,0.00,,OVC003,0.00,VWS V14.01,2013-10-19 16:41:00,
2013-10-19 09:46:00,47.1,46.0,30.17,ESE,112,0.0,0.0,96,0.00,,OVC003,0.00,VWS V14.01,2013-10-19 16:46:00,
2013-10-19 09:51:00,47.2,46.1,30.17,ESE,111,0.0,0.0,96,0.00,,OVC003,0.00,VWS V14.01,2013-10-19 16:51:00,
2013-10-19 09:56:00,47.3,46.2,30.17,ESE,112,0.0,0.0,96,0.00,,OVC003,0.00,VWS V14.01,2013-10-19 16:56:00,
2013-10-19 10:01:00,47.3,46.2,30.17,ESE,111,0.0,0.0,96,0.00,,OVC003,0.00,VWS V14.01,2013-10-19 17:01:00,
2013-10-19 10:06:00,47.5,46.4,30.17,ESE,111,0.0,0.0,96,0.00,,OVC003,0.00,VWS V14.01,2013-10-19 17:06:00,
2013-10-19 10:11:00,47.6,46.5,30.17,ESE,111,0.0,0.0,96,0.00,,OVC003,0.00,VWS V14.01,2013-10-19 17:11:00,
2013-10-19 10:16:00,47.7,46.6,30.17,ESE,112,0.0,0.0,96,0.00,,OVC003,0.00,VWS V14.01,2013-10-19 17:16:00,
2013-10-19 10:21:00,48.0,46.9,30.17,ESE,111,0.0,0.0,96,0.00,,OVC003,0.00,VWS V14.01,2013-10-19 17:21:00,
2013-10-19 10:26:00,47.9,46.5,30.17,ESE,107,0.0,0.0,95,0.00,,OVC003,0.00,VWS V14.01,2013-10-19 17:26:00,
2013-10-19 10:31:00,48.1,46.7,30.17,ESE,107,0.0,0.0,95,0.00,,OVC003,0.00,VWS V14.01,2013-10-19 17:31:00,
2013-10-19 10:36:00,48.2,46.8,30.16,ESE,108,0.0,0.0,95,0.00,,OVC003,0.00,VWS V14.01,2013-10-19 17:36:00,
2013-10-19 10:41:00,48.5,47.1,30.16,ESE,108,0.0,0.0,95,0.00,,OVC003,0.00,VWS V14.01,2013-10-19 17:41:00,
2013-10-19 10:46:00,48.7,47.3,30.17,ESE,107,0.0,0.0,95,0.00,,OVC003,0.00,VWS V14.01,2013-10-19 17:46:00,
2013-10-19 10:51:00,48.8,47.2,30.17,ESE,107,0.0,0.0,94,0.00,,OVC003,0.00,VWS V14.01,2013-10-19 17:51:00,
2013-10-19 10:56:00,48.9,47.2,30.17,ESE,107,1.0,0.0,94,0.00,,OVC003,0.00,VWS V14.01,2013-10-19 17:56:00,
2013-10-19 11:01:00,48.9,47.2,30.16,SE,132,0.0,0.0,94,0.00,,OVC003,0.00,VWS V14.01,2013-10-19 18:01:00,
2013-10-19 11:06:00,49.1,47.7,30.16,ESE,119,0.0,0.0,95,0.00,,OVC004,0.00,VWS V14.01,2013-10-19 18:06:00,
2013-10-19 11:11:00,49.5,47.8,30.16,South,181,0.0,0.0,94,0.00,,OVC004,0.00,VWS V14.01,2013-10-19 18:11:00,
2013-10-19 11:16:00,49.7,48.0,30.16,ENE,76,2.0,0.0,94,0.00,,OVC004,0.00,VWS V14.01,2013-10-19 18:16:00,
2013-10-19 11:21:00,49.8,48.2,30.16,ENE,76,0.0,0.0,94,0.00,,OVC004,0.00,VWS V14.01,2013-10-19 18:21:00,
2013-10-19 11:26:00,50.2,48.3,30.16,South,190,0.0,0.0,93,0.00,,OVC005,0.00,VWS V14.01,2013-10-19 18:26:00,
2013-10-19 11:31:00,50.1,47.9,30.16,East,92,0.0,0.0,92,0.00,,OVC005,0.00,VWS V14.01,2013-10-19 18:31:00,
2013-10-19 11:36:00,50.3,48.4,30.16,ESE,103,0.0,0.0,93,0.00,,OVC005,0.00,VWS V14.01,2013-10-19 18:36:00,
2013-10-19 11:41:00,50.7,48.8,30.16,ESE,110,0.0,0.0,93,0.00,,OVC005,0.00,VWS V14.01,2013-10-19 18:41:00,
2013-10-19 11:46:00,50.7,48.5,30.16,East,97,0.0,0.0,92,0.00,,OVC006,0.00,VWS V14.01,2013-10-19 18:46:00,
2013-10-19 11:51:00,50.7,48.2,30.16,East,100,1.0,0.0,91,0.00,,OVC006,0.00,VWS V14.01,2013-10-19 18:51:00,
2013-10-19 11:56:00,50.7,48.5,30.16,ENE,67,2.0,0.0,92,0.00,,OVC006,0.00,VWS V14.01,2013-10-19 18:56:00,
2013-10-19 12:01:00,51.2,49.0,30.16,ESE,103,0.0,0.0,92,0.00,,OVC006,0.00,VWS V14.01,2013-10-19 19:01:00,
2013-10-19 12:06:00,51.3,48.8,30.16,ESE,103,1.0,0.0,91,0.00,,BKN008,0.00,VWS V14.01,2013-10-19 19:06:00,
2013-10-19 12:11:00,51.5,49.3,30.16,East,86,0.0,0.0,92,0.00,,BKN008,0.00,VWS V14.01,2013-10-19 19:11:00,
2013-10-19 12:16:00,52.5,50.2,30.16,East,89,1.0,0.0,92,0.00,,BKN008,0.00,VWS V14.01,2013-10-19 19:16:00,
2013-10-19 12:21:00,53.1,50.2,30.15,SSW,205,2.0,0.0,90,0.00,,BKN008,0.00,VWS V14.01,2013-10-19 19:21:00,
2013-10-19 12:26:00,53.5,50.6,30.15,SSW,211,0.0,0.0,90,0.00,,CLR,0.00,VWS V14.01,2013-10-19 19:26:00,
2013-10-19 12:31:00,53.9,50.1,30.15,ESE,106,1.0,0.0,87,0.00,,CLR,0.00,VWS V14.01,2013-10-19 19:31:00,
2013-10-19 12:36:00,54.1,50.6,30.15,NNE,30,2.0,0.0,88,0.00,,CLR,0.00,VWS V14.01,2013-10-19 19:36:00,
2013-10-19 12:41:00,54.8,51.0,30.15,WNW,284,0.0,0.0,87,0.00,,CLR,0.00,VWS V14.01,2013-10-19 19:41:00,
2013-10-19 12:46:00,55.3,51.2,30.15,SSW,192,0.0,0.0,86,0.00,,CLR,0.00,VWS V14.01,2013-10-19 19:46:00,
2013-10-19 12:51:00,55.8,51.4,30.15,West,276,0.0,0.0,85,0.00,,CLR,0.00,VWS V14.01,2013-10-19 19:51:00,
2013-10-19 12:56:00,56.8,51.4,30.14,East,80,0.0,0.0,82,0.00,,CLR,0.00,VWS V14.01,2013-10-19 19:56:00,
2013-10-19 13:01:00,56.9,51.5,30.14,ESE,116,0.0,0.0,82,0.00,,CLR,0.00,VWS V14.01,2013-10-19 20:01:00,
2013-10-19 13:06:00,57.2,51.4,30.14,East,99,2.0,0.0,81,0.00,,CLR,0.00,VWS V14.01,2013-10-19 20:06:00,
2013-10-19 13:11:00,57.6,52.2,30.14,NE,51,0.0,0.0,82,0.00,,CLR,0.00,VWS V14.01,2013-10-19 20:11:00,
2013-10-19 13:16:00,58.2,52.4,30.14,ENE,60,0.0,0.0,81,0.00,,CLR,0.00,VWS V14.01,2013-10-19 20:16:00,
2013-10-19 13:21:00,58.7,52.2,30.13,NE,55,2.0,0.0,79,0.00,,CLR,0.00,VWS V14.01,2013-10-19 20:21:00,
2013-10-19 13:26:00,59.0,52.5,30.13,NE,53,0.0,0.0,79,0.00,,CLR,0.00,VWS V14.01,2013-10-19 20:26:00,
2013-10-19 13:31:00,59.4,52.2,30.13,East,96,2.0,0.0,77,0.00,,CLR,0.00,VWS V14.01,2013-10-19 20:31:00,
2013-10-19 13:36:00,59.7,52.5,30.13,NNE,15,1.0,0.0,77,0.00,,CLR,0.00,VWS V14.01,2013-10-19 20:36:00,
2013-10-19 13:41:00,60.4,52.5,30.12,ENE,58,2.0,0.0,75,0.00,,CLR,0.00,VWS V14.01,2013-10-19 20:41:00,
2013-10-19 13:46:00,60.5,52.9,30.12,ENE,57,0.0,0.0,76,0.00,,CLR,0.00,VWS V14.01,2013-10-19 20:46:00,
2013-10-19 13:51:00,60.9,52.9,30.12,ENE,73,0.0,0.0,75,0.00,,CLR,0.00,VWS V14.01,2013-10-19 20:51:00,
2013-10-19 13:56:00,61.5,52.4,30.12,West,260,1.0,0.0,72,0.00,,CLR,0.00,VWS V14.01,2013-10-19 20:56:00,
2013-10-19 14:01:00,61.5,53.2,30.13,ENE,59,2.0,0.0,74,0.00,,CLR,0.00,VWS V14.01,2013-10-19 21:01:00,
2013-10-19 14:06:00,62.1,53.3,30.12,East,96,0.0,0.0,73,0.00,,CLR,0.00,VWS V14.01,2013-10-19 21:06:00,
2013-10-19 14:11:00,62.5,53.0,30.12,East,92,0.0,0.0,71,0.00,,CLR,0.00,VWS V14.01,2013-10-19 21:11:00,
2013-10-19 14:16:00,62.5,53.0,30.12,NW,319,0.0,0.0,71,0.00,,CLR,0.00,VWS V14.01,2013-10-19 21:16:00,
2013-10-19 14:21:00,63.1,53.6,30.12,ENE,60,0.0,0.0,71,0.00,,CLR,0.00,VWS V14.01,2013-10-19 21:21:00,
2013-10-19 14:26:00,63.3,53.0,30.12,South,184,0.0,0.0,69,0.00,,CLR,0.00,VWS V14.01,2013-10-19 21:26:00,
2013-10-19 14:31:00,63.4,53.5,30.12,East,95,2.0,0.0,70,0.00,,CLR,0.00,VWS V14.01,2013-10-19 21:31:00,
2013-10-19 14:36:00,64.0,53.6,30.11,NNE,20,1.0,0.0,69,0.00,,CLR,0.00,VWS V14.01,2013-10-19 21:36:00,
2013-10-19 14:41:00,64.1,53.7,30.11,ENE,71,3.0,0.0,69,0.00,,CLR,0.00,VWS V14.01,2013-10-19 21:41:00,
2013-10-19 14:46:00,64.0,52.8,30.11,ENE,63,1.0,0.0,67,0.00,,CLR,0.00,VWS V14.01,2013-10-19 21:46:00,
2013-10-19 14:51:00,64.2,53.4,30.11,West,280,0.0,0.0,68,0.00,,CLR,0.00,VWS V14.01,2013-10-19 21:51:00,
2013-10-19 14:55:00,64.5,54.1,30.11,ENE,58,0.0,0.0,69,0.00,,CLR,0.00,VWS V14.01,2013-10-19 21:55:00,
2013-10-19 15:00:00,65.4,52.9,30.11,ENE,60,0.0,0.0,64,0.00,,CLR,0.00,VWS V14.01,2013-10-19 22:00:00,
2013-10-19 15:05:00,66.1,53.6,30.11,ENE,69,1.0,0.0,64,0.00,,CLR,0.00,VWS V14.01,2013-10-19 22:05:00,
2013-10-19 15:10:00,66.6,53.6,30.11,East,95,1.0,0.0,63,0.00,,CLR,0.00,VWS V14.01,2013-10-19 22:10:00,
2013-10-19 15:15:00,66.2,53.2,30.11,ENE,78,0.0,0.0,63,0.00,,CLR,0.00,VWS V14.01,2013-10-19 22:15:00,
2013-10-19 15:20:00,66.4,54.3,30.11,East,94,1.0,0.0,65,0.00,,CLR,0.00,VWS V14.01,2013-10-19 22:20:00,
2013-10-19 15:25:00,66.1,53.2,30.11,East,94,0.0,0.0,63,0.00,,CLR,0.00,VWS V14.01,2013-10-19 22:25:00,
2013-10-19 15:30:00,66.2,53.7,30.11,ESE,103,0.0,0.0,64,0.00,,CLR,0.00,VWS V14.01,2013-10-19 22:30:00,
2013-10-19 15:35:00,66.0,52.2,30.10,West,275,4.0,0.0,61,0.00,,CLR,0.00,VWS V14.01,2013-10-19 22:35:00,
2013-10-19 15:40:00,65.8,52.4,30.11,West,269,0.0,0.0,62,0.00,,CLR,0.00,VWS V14.01,2013-10-19 22:40:00,
2013-10-19 15:45:00,65.8,53.3,30.11,WSW,239,0.0,0.0,64,0.00,,CLR,0.00,VWS V14.01,2013-10-19 22:45:00,
2013-10-19 15:50:00,65.6,52.2,30.11,WSW,254,2.0,0.0,62,0.00,,CLR,0.00,VWS V14.01,2013-10-19 22:50:00,
2013-10-19 15:55:00,65.2,52.7,30.10,SW,223,3.0,0.0,64,0.00,,CLR,0.00,VWS V14.01,2013-10-19 22:55:00,
2013-10-19 16:00:00,65.1,52.6,30.11,South,183,0.0,0.0,64,0.00,,CLR,0.00,VWS V14.01,2013-10-19 23:00:00,
2013-10-19 16:05:00,65.1,53.1,30.10,SSW,194,1.0,0.0,65,0.00,,CLR,0.00,VWS V14.01,2013-10-19 23:05:00,
2013-10-19 16:10:00,64.7,52.3,30.11,West,273,2.0,0.0,64,0.00,,CLR,0.00,VWS V14.01,2013-10-19 23:10:00,
2013-10-19 16:15:00,64.5,52.5,30.10,SW,225,2.0,0.0,65,0.00,,CLR,0.00,VWS V14.01,2013-10-19 23:15:00,
2013-10-19 16:20:00,64.4,52.4,30.10,West,270,2.0,0.0,65,0.00,,CLR,0.00,VWS V14.01,2013-10-19 23:20:00,
2013-10-19 16:25:00,64.1,52.1,30.10,South,190,2.0,0.0,65,0.00,,CLR,0.00,VWS V14.01,2013-10-19 23:25:00,
2013-10-19 16:30:00,63.8,52.2,30.10,SW,217,4.0,0.0,66,0.00,,CLR,0.00,VWS V14.01,2013-10-19 23:30:00,
2013-10-19 16:35:00,63.6,52.0,30.10,SSW,196,0.0,0.0,66,0.00,,CLR,0.00,VWS V14.01,2013-10-19 23:35:00,
2013-10-19 16:40:00,63.6,52.5,30.10,SSW,202,1.0,0.0,67,0.00,,CLR,0.00,VWS V14.01,2013-10-19 23:40:00,
2013-10-19 16:45:00,63.6,52.0,30.10,SW,230,2.0,0.0,66,0.00,,CLR,0.00,VWS V14.01,2013-10-19 23:45:00,
2013-10-19 16:50:00,63.4,52.3,30.10,SSW,199,2.0,0.0,67,0.00,,CLR,0.00,VWS V14.01,2013-10-19 23:50:00,
2013-10-19 16:55:00,63.3,52.6,30.11,SW,221,1.0,0.0,68,0.00,,CLR,0.00,VWS V14.01,2013-10-19 23:55:00,
2013-10-19 17:00:00,63.1,52.4,30.11,South,189,0.0,0.0,68,0.00,,CLR,0.00,VWS V14.01,2013-10-20 00:00:00,
2013-10-19 17:05:00,63.0,52.3,30.11,South,183,2.0,0.0,68,0.00,,CLR,0.00,VWS V14.01,2013-10-20 00:05:00,
2013-10-19 17:10:00,62.6,52.3,30.10,SW,224,2.0,0.0,69,0.00,,CLR,0.00,VWS V14.01,2013-10-20 00:10:00,
2013-10-19 17:15:00,62.2,52.7,30.10,SSW,200,0.0,0.0,71,0.00,,CLR,0.00,VWS V14.01,2013-10-20 00:15:00,
2013-10-19 17:20:00,62.0,52.5,30.10,SSW,198,0.0,0.0,71,0.00,,CLR,0.00,VWS V14.01,2013-10-20 00:20:00,
2013-10-19 17:25:00,61.7,52.6,30.10,South,186,0.0,0.0,72,0.00,,CLR,0.00,VWS V14.01,2013-10-20 00:25:00,
2013-10-19 17:30:00,61.4,52.7,30.10,WSW,256,0.0,0.0,73,0.00,,CLR,0.00,VWS V14.01,2013-10-20 00:30:00,
2013-10-19 17:35:00,61.0,52.7,30.10,SSW,213,0.0,0.0,74,0.00,,CLR,0.00,VWS V14.01,2013-10-20 00:35:00,
2013-10-19 17:40:00,60.7,52.7,30.10,SSW,205,2.0,0.0,75,0.00,,CLR,0.00,VWS V14.01,2013-10-20 00:40:00,
2013-10-19 17:45:00,60.5,52.9,30.10,South,191,0.0,0.0,76,0.00,,CLR,0.00,VWS V14.01,2013-10-20 00:45:00,
2013-10-19 17:50:00,60.1,52.5,30.10,SSW,210,0.0,0.0,76,0.00,,CLR,0.00,VWS V14.01,2013-10-20 00:50:00,
2013-10-19 17:55:00,59.8,52.6,30.11,South,180,0.0,0.0,77,0.00,,CLR,0.00,VWS V14.01,2013-10-20 00:55:00,
2013-10-19 18:00:00,59.6,52.7,30.11,South,190,1.0,0.0,78,0.00,,CLR,0.00,VWS V14.01,2013-10-20 01:00:00,
2013-10-19 18:05:00,59.3,52.8,30.11,SSW,192,1.0,0.0,79,0.00,,CLR,0.00,VWS V14.01,2013-10-20 01:05:00,
2013-10-19 18:10:00,59.0,52.5,30.11,South,175,0.0,0.0,79,0.00,,CLR,0.00,VWS V14.01,2013-10-20 01:10:00,
2013-10-19 18:15:00,58.8,52.7,30.11,SSE,154,0.0,0.0,80,0.00,,CLR,0.00,VWS V14.01,2013-10-20 01:15:00,
2013-10-19 18:20:00,58.4,52.6,30.11,South,171,0.0,0.0,81,0.00,,CLR,0.00,VWS V14.01,2013-10-20 01:20:00,
2013-10-19 18:25:00,58.2,52.4,30.11,SSE,148,0.0,0.0,81,0.00,,CLR,0.00,VWS V14.01,2013-10-20 01:25:00,
2013-10-19 18:30:00,57.9,52.5,30.11,SSE,148,0.0,0.0,82,0.00,,CLR,0.00,VWS V14.01,2013-10-20 01:30:00,
2013-10-19 18:35:00,57.4,52.3,30.11,WNW,288,1.0,0.0,83,0.00,,CLR,0.00,VWS V14.01,2013-10-20 01:35:00,
2013-10-19 18:40:00,57.2,52.1,30.11,SSW,207,0.0,0.0,83,0.00,,CLR,0.00,VWS V14.01,2013-10-20 01:40:00,
2013-10-19 18:45:00,56.9,52.1,30.11,SSW,207,0.0,0.0,84,0.00,,CLR,0.00,VWS V14.01,2013-10-20 01:45:00,
2013-10-19 18:50:00,56.5,52.0,30.11,SSW,203,0.0,0.0,85,0.00,,CLR,0.00,VWS V14.01,2013-10-20 01:50:00,
2013-10-19 18:55:00,56.3,52.2,30.11,SSE,150,0.0,0.0,86,0.00,,CLR,0.00,VWS V14.01,2013-10-20 01:55:00,
2013-10-19 19:00:00,56.2,52.1,30.12,SSE,151,0.0,0.0,86,0.00,,CLR,0.00,VWS V14.01,2013-10-20 02:00:00,
2013-10-19 19:05:00,55.7,51.6,30.12,SSE,150,0.0,0.0,86,0.00,,CLR,0.00,VWS V14.01,2013-10-20 02:05:00,
2013-10-19 19:10:00,55.0,51.2,30.12,SSE,151,0.0,0.0,87,0.00,,CLR,0.00,VWS V14.01,2013-10-20 02:10:00,
2013-10-19 19:15:00,54.5,51.0,30.12,SSE,150,0.0,0.0,88,0.00,,CLR,0.00,VWS V14.01,2013-10-20 02:15:00,
2013-10-19 19:20:00,53.9,50.4,30.12,SSE,150,0.0,0.0,88,0.00,,CLR,0.00,VWS V14.01,2013-10-20 02:20:00,
2013-10-19 19:25:00,53.3,50.2,30.12,SSE,151,0.0,0.0,89,0.00,,CLR,0.00,VWS V14.01,2013-10-20 02:25:00,
2013-10-19 19:30:00,52.9,50.0,30.12,SSE,151,0.0,0.0,90,0.00,,CLR,0.00,VWS V14.01,2013-10-20 02:30:00,
2013-10-19 19:35:00,52.5,50.0,30.12,SSE,151,0.0,0.0,91,0.00,,CLR,0.00,VWS V14.01,2013-10-20 02:35:00,
2013-10-19 19:40:00,52.1,49.6,30.13,SSE,150,0.0,0.0,91,0.00,,CLR,0.00,VWS V14.01,2013-10-20 02:40:00,
2013-10-19 19:45:00,51.8,49.3,30.13,SSE,151,0.0,0.0,91,0.00,,CLR,0.00,VWS V14.01,2013-10-20 02:45:00,
2013-10-19 19:50:00,51.7,49.5,30.13,SSE,151,0.0,0.0,92,0.00,,CLR,0.00,VWS V14.01,2013-10-20 02:50:00,
2013-10-19 19:55:00,51.5,49.3,30.13,SSE,151,0.0,0.0,92,0.00,,CLR,0.00,VWS V14.01,2013-10-20 02:55:00,
2013-10-19 20:00:00,51.2,49.2,30.13,SSE,150,0.0,0.0,93,0.00,,CLR,0.00,VWS V14.01,2013-10-20 03:00:00,
2013-10-19 20:05:00,50.9,49.0,30.13,SSE,150,0.0,0.0,93,0.00,,CLR,0.00,VWS V14.01,2013-10-20 03:05:00,
2013-10-19 20:10:00,50.6,48.7,30.13,SSE,151,0.0,0.0,93,0.00,,CLR,0.00,VWS V14.01,2013-10-20 03:10:00,
2013-10-19 20:15:00,50.4,48.5,30.14,SSE,151,0.0,0.0,93,0.00,,CLR,0.00,VWS V14.01,2013-10-20 03:15:00,
2013-10-19 20:20:00,50.4,48.5,30.14,SSE,150,0.0,0.0,93,0.00,,CLR,0.00,VWS V14.01,2013-10-20 03:20:00,
2013-10-19 20:25:00,50.2,48.3,30.14,SSE,151,0.0,0.0,93,0.00,,CLR,0.00,VWS V14.01,2013-10-20 03:25:00,
2013-10-19 20:30:00,50.1,48.4,30.14,SSE,150,0.0,0.0,94,0.00,,CLR,0.00,VWS V14.01,2013-10-20 03:30:00,
2013-10-19 20:35:00,49.9,48.0,30.14,SSE,151,0.0,0.0,93,0.00,,CLR,0.00,VWS V14.01,2013-10-20 03:35:00,
2013-10-19 20:40:00,49.7,47.8,30.14,SSE,151,0.0,0.0,93,0.00,,CLR,0.00,VWS V14.01,2013-10-20 03:40:00,
2013-10-19 20:45:00,49.5,47.6,30.14,SE,125,0.0,0.0,93,0.00,,CLR,0.00,VWS V14.01,2013-10-20 03:45:00,
2013-10-19 20:50:00,49.3,47.7,30.15,ESE,117,0.0,0.0,94,0.00,,CLR,0.00,VWS V14.01,2013-10-20 03:50:00,
2013-10-19 20:55:00,49.1,47.5,30.15,ESE,104,1.0,0.0,94,0.00,,CLR,0.00,VWS V14.01,2013-10-20 03:55:00,
2013-10-19 21:00:00,48.9,47.2,30.15,SE,126,0.0,0.0,94,0.00,,CLR,0.00,VWS V14.01,2013-10-20 04:00:00,
2013-10-19 21:01:00,48.9,47.2,30.15,SE,126,0.0,0.0,94,0.00,,CLR,0.00,VWS V14.01,2013-10-20 04:01:00,
2013-10-19 21:06:00,48.7,47.0,30.15,ESE,109,1.0,0.0,94,0.00,,CLR,0.00,VWS V14.01,2013-10-20 04:06:00,
2013-10-19 21:11:00,48.5,46.9,30.15,ESE,109,0.0,0.0,94,0.00,,CLR,0.00,VWS V14.01,2013-10-20 04:11:00,
2013-10-19 21:16:00,48.2,46.6,30.15,ESE,109,0.0,0.0,94,0.00,,CLR,0.00,VWS V14.01,2013-10-20 04:16:00,
2013-10-19 21:21:00,47.9,46.3,30.16,ESE,109,0.0,0.0,94,0.00,,CLR,0.00,VWS V14.01,2013-10-20 04:21:00,
2013-10-19 21:26:00,47.7,46.1,30.15,ESE,109,0.0,0.0,94,0.00,,FEW008,0.00,VWS V14.01,2013-10-20 04:26:00,
2013-10-19 21:31:00,47.6,46.0,30.15,ESE,109,0.0,0.0,94,0.00,,FEW008,0.00,VWS V14.01,2013-10-20 04:31:00,
2013-10-19 21:36:00,47.2,45.6,30.15,ESE,109,0.0,0.0,94,0.00,,FEW008,0.00,VWS V14.01,2013-10-20 04:36:00,
2013-10-19 21:41:00,46.9,45.3,30.15,ESE,109,0.0,0.0,94,0.00,,FEW008,0.00,VWS V14.01,2013-10-20 04:41:00,
2013-10-19 21:46:00,46.7,45.3,30.16,ESE,109,0.0,0.0,95,0.00,,SCT008,0.00,VWS V14.01,2013-10-20 04:46:00,
2013-10-19 21:51:00,46.4,45.0,30.16,ESE,109,0.0,0.0,95,0.00,,SCT008,0.00,VWS V14.01,2013-10-20 04:51:00,
2013-10-19 21:56:00,46.5,45.2,30.16,ESE,109,0.0,0.0,95,0.00,,SCT008,0.00,VWS V14.01,2013-10-20 04:56:00,
2013-10-19 22:01:00,46.6,45.2,30.16,ESE,109,0.0,0.0,95,0.00,,SCT008,0.00,VWS V14.01,2013-10-20 05:01:00,
2013-10-19 22:06:00,46.4,45.0,30.16,ESE,109,0.0,0.0,95,0.00,,BKN006,0.00,VWS V14.01,2013-10-20 05:06:00,
2013-10-19 22:11:00,46.3,45.0,30.17,ESE,109,0.0,0.0,95,0.00,,BKN006,0.00,VWS V14.01,2013-10-20 05:11:00,
2013-10-19 22:16:00,46.3,45.0,30.17,ESE,109,0.0,0.0,95,0.00,,BKN006,0.00,VWS V14.01,2013-10-20 05:16:00,
2013-10-19 22:21:00,46.2,44.8,30.16,ESE,109,0.0,0.0,95,0.00,,BKN006,0.00,VWS V14.01,2013-10-20 05:21:00,
2013-10-19 22:26:00,45.9,44.5,30.17,ESE,109,0.0,0.0,95,0.00,,OVC006,0.00,VWS V14.01,2013-10-20 05:26:00,
2013-10-19 22:31:00,45.6,44.2,30.17,ESE,109,0.0,0.0,95,0.00,,OVC006,0.00,VWS V14.01,2013-10-20 05:31:00,
2013-10-19 22:36:00,45.8,44.7,30.17,ESE,109,0.0,0.0,96,0.00,,OVC006,0.00,VWS V14.01,2013-10-20 05:36:00,
2013-10-19 22:41:00,45.7,44.6,30.17,ESE,109,0.0,0.0,96,0.00,,OVC006,0.00,VWS V14.01,2013-10-20 05:41:00,
2013-10-19 22:46:00,45.6,44.5,30.17,ESE,109,0.0,0.0,96,0.00,,OVC006,0.00,VWS V14.01,2013-10-20 05:46:00,
2013-10-19 22:51:00,45.5,44.2,30.17,ESE,109,0.0,0.0,95,0.00,,OVC006,0.00,VWS V14.01,2013-10-20 05:51:00,
2013-10-19 22:56:00,45.5,44.4,30.17,ESE,109,0.0,0.0,96,0.00,,OVC006,0.00,VWS V14.01,2013-10-20 05:56:00,
2013-10-19 23:01:00,45.4,44.3,30.17,ESE,109,0.0,0.0,96,0.00,,OVC006,0.00,VWS V14.01,2013-10-20 06:01:00,
2013-10-19 23:06:00,45.2,43.9,30.17,ESE,112,0.0,0.0,95,0.00,,OVC006,0.00,VWS V14.01,2013-10-20 06:06:00,
2013-10-19 23:11:00,45.2,44.1,30.17,ESE,113,0.0,0.0,96,0.00,,OVC006,0.00,VWS V14.01,2013-10-20 06:11:00,
2013-10-19 23:16:00,45.2,44.1,30.17,ESE,113,0.0,0.0,96,0.00,,OVC006,0.00,VWS V14.01,2013-10-20 06:16:00,
2013-10-19 23:21:00,45.3,44.2,30.16,ESE,113,0.0,0.0,96,0.00,,OVC006,0.00,VWS V14.01,2013-10-20 06:21:00,
2013-10-19 23:26:00,45.4,44.3,30.16,ESE,113,0.0,0.0,96,0.00,,OVC006,0.00,VWS V14.01,2013-10-20 06:26:00,
2013-10-19 23:31:00,45.6,44.5,30.16,ESE,113,0.0,0.0,96,0.00,,OVC006,0.00,VWS V14.01,2013-10-20 06:31:00,
2013-10-19 23:36:00,45.5,44.4,30.16,ESE,113,0.0,0.0,96,0.00,,OVC006,0.00,VWS V14.01,2013-10-20 06:36:00,
2013-10-19 23:41:00,45.6,44.5,30.16,ESE,113,0.0,0.0,96,0.00,,OVC006,0.00,VWS V14.01,2013-10-20 06:41:00,
2013-10-19 23:46:00,45.8,44.7,30.16,ESE,113,0.0,0.0,96,0.00,,OVC006,0.00,VWS V14.01,2013-10-20 06:46:00,
2013-10-19 23:51:00,45.9,44.8,30.16,ESE,113,0.0,0.0,96,0.00,,OVC006,0.00,VWS V14.01,2013-10-20 06:51:00,
2013-10-19 23:56:00,46.0,44.9,30.16,ESE,113,0.0,0.0,96,0.00,,OVC006,0.00,VWS V14.01,2013-10-20 06:56:00,